Time;durP1;ratioP1;P1;durP2;ratioP2;P2;SDS_P1;SDS_P2;PMS_P1;PMS_P2;Temp;Humidity;BMP_temperature;BMP_pressure;BME280_temperature;BME280_humidity;BME280_pressure;Samples;Min_cycle;Max_cycle;Signal;HPM_P1;HPM_P2
2021/04/15 00:01:11;;;;;;;1999.90;999.90;;;5.90;99.90;;;;;;5090961;28;20067;-90
2021/04/15 00:03:38;;;;;;;1999.90;999.90;;;6.00;99.90;;;;;;5094344;28;20059;-91
2021/04/15 00:06:08;;;;;;;1999.90;999.90;;;6.00;99.90;;;;;;5089644;28;20044;-91
2021/04/15 00:08:36;;;;;;;1999.90;999.90;;;6.00;99.90;;;;;;5095437;28;20074;-96
2021/04/15 00:11:04;;;;;;;1999.90;999.90;;;6.00;99.90;;;;;;5095286;28;20082;-96
2021/04/15 00:13:33;;;;;;;1999.90;999.90;;;6.00;99.90;;;;;;5095093;28;20427;-96
2021/04/15 00:16:02;;;;;;;1999.90;999.90;;;5.90;99.90;;;;;;5097132;28;20044;-96
2021/04/15 00:18:30;;;;;;;1999.90;999.90;;;5.80;99.90;;;;;;5098902;28;20048;-96
2021/04/15 00:20:58;;;;;;;1999.90;999.90;;;5.80;99.90;;;;;;5099138;28;20051;-96
2021/04/15 00:23:25;;;;;;;1999.90;999.90;;;5.90;99.90;;;;;;5098569;28;20048;-95
2021/04/15 00:25:53;;;;;;;1999.90;999.90;;;5.80;99.90;;;;;;5098662;28;20583;-96
2021/04/15 00:28:24;;;;;;;1999.90;999.90;;;5.80;99.90;;;;;;5099368;28;20482;-96
2021/04/15 00:30:53;;;;;;;1999.90;999.90;;;5.80;99.90;;;;;;5098571;28;20101;-96
2021/04/15 00:33:22;;;;;;;1999.90;999.90;;;5.80;99.90;;;;;;5100109;28;20047;-96
2021/04/15 00:35:50;;;;;;;1999.90;999.90;;;5.80;99.90;;;;;;5099127;28;20052;-96
2021/04/15 00:38:20;;;;;;;1999.90;999.90;;;5.80;99.90;;;;;;5098779;28;20135;-96
2021/04/15 00:40:49;;;;;;;1999.90;999.90;;;5.80;99.90;;;;;;5099556;28;20056;-96
2021/04/15 00:43:17;;;;;;;1999.90;999.90;;;5.80;99.90;;;;;;5098619;28;20044;-96
2021/04/15 00:45:46;;;;;;;1999.90;999.90;;;5.80;99.90;;;;;;5101310;28;20048;-95
2021/04/15 00:48:32;;;;;;;1999.90;999.90;;;5.80;99.90;;;;;;5104521;28;20052;-95
2021/04/15 00:51:02;;;;;;;1999.90;999.90;;;5.80;99.90;;;;;;5104079;28;20144;-96
2021/04/15 00:53:42;;;;;;;1999.90;999.90;;;5.80;99.90;;;;;;5098723;28;20429;-96
2021/04/15 00:56:11;;;;;;;1999.90;999.90;;;5.70;99.90;;;;;;5098737;28;20056;-96
2021/04/15 00:58:38;;;;;;;1999.90;999.90;;;5.70;99.90;;;;;;5098944;28;20082;-96
2021/04/15 01:01:06;;;;;;;1999.90;999.90;;;5.80;99.90;;;;;;5098221;28;20052;-96
2021/04/15 01:03:35;;;;;;;1999.90;999.90;;;5.70;99.90;;;;;;5098020;28;20048;-96
2021/04/15 01:06:05;;;;;;;1999.90;999.90;;;5.70;99.90;;;;;;5097962;28;20072;-96
2021/04/15 01:08:32;;;;;;;1999.90;999.90;;;5.70;99.90;;;;;;5098301;28;20052;-96
2021/04/15 01:11:09;;;;;;;1999.90;999.90;;;5.70;99.90;;;;;;5098094;28;20069;-96
2021/04/15 01:13:48;;;;;;;1999.90;999.90;;;5.80;99.90;;;;;;5098302;28;20097;-96
2021/04/15 01:16:26;;;;;;;1999.90;999.90;;;5.70;99.90;;;;;;5098813;28;20087;-96
2021/04/15 01:19:02;;;;;;;1999.90;999.90;;;5.70;99.90;;;;;;5097856;28;20048;-96
2021/04/15 01:21:59;;;;;;;1999.90;999.90;;;5.70;99.90;;;;;;5098008;28;20044;-95
2021/04/15 01:24:33;;;;;;;1999.90;999.90;;;5.60;99.90;;;;;;5097882;28;20056;-95
2021/04/15 01:27:26;;;;;;;1999.90;999.90;;;5.60;99.90;;;;;;5098028;28;20056;-95
2021/04/15 01:30:06;;;;;;;1999.90;999.90;;;5.60;99.90;;;;;;5099040;28;20072;-96
2021/04/15 01:32:37;;;;;;;1999.90;999.90;;;5.60;99.90;;;;;;5098458;28;20120;-95
2021/04/15 01:35:08;;;;;;;1999.90;999.90;;;5.60;99.90;;;;;;5097752;28;20059;-96
2021/04/15 01:37:44;;;;;;;1999.90;999.90;;;5.60;99.90;;;;;;5097919;28;20048;-95
2021/04/15 01:40:16;;;;;;;1999.90;999.90;;;5.50;99.90;;;;;;5098399;28;20479;-96
2021/04/15 01:42:51;;;;;;;1999.90;999.90;;;5.50;99.90;;;;;;5097690;28;20086;-91
2021/04/15 01:45:20;;;;;;;1999.90;999.90;;;5.40;99.90;;;;;;5067480;28;20053;-92
2021/04/15 01:47:53;;;;;;;1999.90;999.90;;;5.40;99.90;;;;;;5073588;28;20073;-92
2021/04/15 01:50:27;;;;;;;1999.90;999.90;;;5.40;99.90;;;;;;5062175;28;20099;-92
2021/04/15 01:52:59;;;;;;;1999.90;999.90;;;5.40;99.90;;;;;;5060883;28;20548;-92
2021/04/15 01:55:31;;;;;;;1999.90;999.90;;;5.30;99.90;;;;;;5066223;28;20079;-92
2021/04/15 01:58:10;;;;;;;1999.90;999.90;;;5.20;99.90;;;;;;5076836;28;20048;-92
2021/04/15 02:00:41;;;;;;;1999.90;999.90;;;5.30;99.90;;;;;;5076296;28;20060;-92
2021/04/15 02:03:14;;;;;;;1999.90;999.90;;;5.20;99.90;;;;;;5076876;28;20041;-92
2021/04/15 02:05:43;;;;;;;1999.90;999.90;;;5.20;99.90;;;;;;5077174;28;20094;-92
2021/04/15 02:08:13;;;;;;;1999.90;999.90;;;5.30;99.90;;;;;;5076492;28;20048;-92
2021/04/15 02:10:43;;;;;;;1999.90;999.90;;;5.30;99.90;;;;;;5076530;28;20052;-92
2021/04/15 02:13:12;;;;;;;1999.90;999.90;;;5.30;99.90;;;;;;5076054;28;20080;-92
2021/04/15 02:15:45;;;;;;;1999.90;999.90;;;5.40;99.90;;;;;;5076033;28;20076;-91
2021/04/15 02:18:19;;;;;;;1999.90;999.90;;;5.30;99.90;;;;;;5078532;28;20398;-90
2021/04/15 02:20:49;;;;;;;1999.90;999.90;;;5.30;99.90;;;;;;5083243;28;20053;-91
2021/04/15 02:23:24;;;;;;;1999.90;999.90;;;5.40;99.90;;;;;;5072594;28;20048;-91
2021/04/15 02:25:57;;;;;;;1999.90;999.90;;;5.40;99.90;;;;;;5074429;28;20060;-90
2021/04/15 02:28:29;;;;;;;1999.90;999.90;;;5.40;99.90;;;;;;5076320;28;20343;-91
2021/04/15 02:31:05;;;;;;;1999.90;999.90;;;5.40;99.90;;;;;;5073601;28;20487;-90
2021/04/15 02:33:38;;;;;;;1999.90;999.90;;;5.40;99.90;;;;;;5074513;28;20049;-90
2021/04/15 02:36:08;;;;;;;1999.90;999.90;;;5.40;99.90;;;;;;5076840;28;20044;-90
2021/04/15 02:38:46;;;;;;;1999.90;999.90;;;5.40;99.90;;;;;;5075062;28;20049;-90
2021/04/15 02:41:17;;;;;;;1999.90;999.90;;;5.40;99.90;;;;;;5076014;28;20086;-90
2021/04/15 02:43:51;;;;;;;1999.90;999.90;;;5.40;99.90;;;;;;5074862;28;20043;-90
2021/04/15 02:46:33;;;;;;;1999.90;999.90;;;5.40;99.90;;;;;;5075282;28;20048;-90
2021/04/15 02:49:04;;;;;;;1999.90;999.90;;;5.30;99.90;;;;;;5075087;28;20044;-90
2021/04/15 02:51:33;;;;;;;1999.90;999.90;;;5.40;99.90;;;;;;5074499;28;20044;-90
2021/04/15 02:54:06;;;;;;;1999.90;999.90;;;5.30;99.90;;;;;;5074461;28;20045;-90
2021/04/15 02:56:41;;;;;;;1999.90;999.90;;;5.30;99.90;;;;;;5076023;28;20114;-90
2021/04/15 02:59:14;;;;;;;1999.90;999.90;;;5.30;99.90;;;;;;5072121;28;20052;-89
2021/04/15 03:01:46;;;;;;;1999.90;999.90;;;5.30;99.90;;;;;;5069045;28;20132;-90
2021/04/15 03:04:16;;;;;;;1999.90;999.90;;;5.30;99.90;;;;;;5078259;28;20052;-90
2021/04/15 03:06:45;;;;;;;1999.90;999.90;;;5.30;99.90;;;;;;5073552;28;20048;-90
2021/04/15 03:09:14;;;;;;;1999.90;999.90;;;5.30;99.90;;;;;;5076914;28;20052;-90
2021/04/15 03:11:46;;;;;;;1999.90;999.90;;;5.30;99.90;;;;;;5074247;28;20098;-90
2021/04/15 03:14:22;;;;;;;1999.90;999.90;;;5.30;99.90;;;;;;5074043;28;20674;-90
2021/04/15 03:16:55;;;;;;;1999.90;999.90;;;5.30;99.90;;;;;;5073970;28;20048;-91
2021/04/15 03:19:26;;;;;;;1999.90;999.90;;;5.20;99.90;;;;;;5073572;28;20052;-90
2021/04/15 03:22:00;;;;;;;1999.90;999.90;;;5.20;99.90;;;;;;5072855;28;20052;-90
2021/04/15 03:24:34;;;;;;;1999.90;999.90;;;5.20;99.90;;;;;;5076517;28;20077;-91
2021/04/15 03:27:09;;;;;;;1999.90;999.90;;;5.20;99.90;;;;;;5060236;28;20045;-90
2021/04/15 03:29:43;;;;;;;1999.90;999.90;;;5.20;99.90;;;;;;5066073;28;20138;-90
2021/04/15 03:32:16;;;;;;;1999.90;999.90;;;5.10;99.90;;;;;;5076376;28;20077;-90
2021/04/15 03:34:50;;;;;;;1999.90;999.90;;;5.10;99.90;;;;;;5079224;28;20403;-90
2021/04/15 03:37:23;;;;;;;1999.90;999.90;;;5.10;99.90;;;;;;5074645;28;20079;-90
2021/04/15 03:39:53;;;;;;;1999.90;999.90;;;5.10;99.90;;;;;;5072762;28;20048;-90
2021/04/15 03:42:29;;;;;;;1999.90;999.90;;;5.00;99.90;;;;;;5080923;28;20056;-90
2021/04/15 03:45:01;;;;;;;1999.90;999.90;;;5.00;99.90;;;;;;5069028;28;20094;-90
2021/04/15 03:47:33;;;;;;;1999.90;999.90;;;5.00;99.90;;;;;;5089122;28;20055;-89
2021/04/15 03:50:05;;;;;;;1999.90;999.90;;;5.00;99.90;;;;;;5089541;28;20047;-91
2021/04/15 03:52:38;;;;;;;1999.90;999.90;;;5.00;99.90;;;;;;5079936;28;20543;-90
2021/04/15 03:55:16;;;;;;;1999.90;999.90;;;4.90;99.90;;;;;;5061262;28;20068;-90
2021/04/15 03:57:46;;;;;;;1999.90;999.90;;;4.90;99.90;;;;;;5074246;28;20056;-90
2021/04/15 04:00:18;;;;;;;1999.90;999.90;;;4.90;99.90;;;;;;5074024;28;20196;-90
2021/04/15 04:02:51;;;;;;;1999.90;999.90;;;4.90;99.90;;;;;;5074018;28;20113;-90
2021/04/15 04:05:23;;;;;;;1999.90;999.90;;;4.90;99.90;;;;;;5074389;28;20052;-90
2021/04/15 04:07:53;;;;;;;1999.90;999.90;;;4.90;99.90;;;;;;5059925;28;20499;-90
2021/04/15 04:10:25;;;;;;;1999.90;999.90;;;4.90;99.90;;;;;;5073202;28;20056;-90
2021/04/15 04:13:07;;;;;;;1999.90;999.90;;;4.90;99.90;;;;;;5071757;28;20487;-89
2021/04/15 04:15:39;;;;;;;1999.90;999.90;;;5.00;99.90;;;;;;5069148;28;20060;-91
2021/04/15 04:18:12;;;;;;;1999.90;999.90;;;5.00;99.90;;;;;;5076657;28;20078;-90
2021/04/15 04:20:48;;;;;;;1999.90;999.90;;;5.00;99.90;;;;;;5075989;28;20056;-91
2021/04/15 04:23:27;;;;;;;1999.90;999.90;;;5.00;99.90;;;;;;5076681;28;20056;-90
2021/04/15 04:26:03;;;;;;;1999.90;999.90;;;5.00;99.90;;;;;;5077345;28;20056;-90
2021/04/15 04:28:37;;;;;;;1999.90;999.90;;;5.00;99.90;;;;;;5074847;28;20064;-90
2021/04/15 04:31:08;;;;;;;1999.90;999.90;;;5.00;99.90;;;;;;5075357;28;20056;-91
2021/04/15 04:33:41;;;;;;;1999.90;999.90;;;5.10;99.90;;;;;;5080328;28;20044;-90
2021/04/15 04:36:10;;;;;;;1999.90;999.90;;;5.10;99.90;;;;;;5084490;28;20056;-90
2021/04/15 04:38:38;;;;;;;1999.90;999.90;;;5.10;99.90;;;;;;5065713;28;20055;-90
2021/04/15 04:41:09;;;;;;;1999.90;999.90;;;5.10;99.90;;;;;;5089225;28;20101;-90
2021/04/15 04:43:42;;;;;;;1999.90;999.90;;;5.10;99.90;;;;;;5091911;28;20044;-90
2021/04/15 04:46:15;;;;;;;1999.90;999.90;;;5.10;99.90;;;;;;5084973;28;20089;-91
2021/04/15 04:48:53;;;;;;;1999.90;999.90;;;5.10;99.90;;;;;;5077624;28;20500;-90
2021/04/15 04:51:22;;;;;;;1999.90;999.90;;;5.20;99.90;;;;;;5063978;28;20131;-90
2021/04/15 04:53:51;;;;;;;1999.90;999.90;;;5.10;99.90;;;;;;5063122;28;20079;-90
2021/04/15 04:56:25;;;;;;;1999.90;999.90;;;5.20;99.90;;;;;;5074587;28;20048;-90
2021/04/15 04:58:57;;;;;;;1999.90;999.90;;;5.20;99.90;;;;;;5085479;28;20056;-89
2021/04/15 05:01:24;;;;;;;1999.90;999.90;;;5.20;99.90;;;;;;5074353;28;20052;-89
2021/04/15 05:03:58;;;;;;;1999.90;999.90;;;5.20;99.90;;;;;;5080905;28;20047;-89
2021/04/15 05:06:31;;;;;;;1999.90;999.90;;;5.20;99.90;;;;;;5079602;28;20056;-90
2021/04/15 05:09:05;;;;;;;1999.90;999.90;;;5.30;99.90;;;;;;5081908;28;20064;-89
2021/04/15 05:11:36;;;;;;;1999.90;999.90;;;5.30;99.90;;;;;;5066462;28;20117;-90
2021/04/15 05:14:05;;;;;;;1999.90;999.90;;;5.30;99.90;;;;;;5075362;28;20049;-90
2021/04/15 05:16:38;;;;;;;1999.90;999.90;;;5.30;99.90;;;;;;5078809;28;20052;-90
2021/04/15 05:19:07;;;;;;;1999.90;999.90;;;5.40;99.90;;;;;;5087959;28;20048;-90
2021/04/15 05:21:35;;;;;;;1999.90;999.90;;;5.40;99.90;;;;;;5086380;28;20061;-89
2021/04/15 05:24:11;;;;;;;1999.90;999.90;;;5.50;99.90;;;;;;5081335;28;20045;-90
2021/04/15 05:26:41;;;;;;;1999.90;999.90;;;5.50;99.90;;;;;;5074110;28;20102;-90
2021/04/15 05:29:12;;;;;;;1999.90;999.90;;;5.50;99.90;;;;;;5077573;28;20517;-91
2021/04/15 05:31:44;;;;;;;1999.90;999.90;;;5.50;99.90;;;;;;5072279;28;20076;-90
2021/04/15 05:34:20;;;;;;;1999.90;999.90;;;5.60;99.90;;;;;;5080383;28;20041;-90
2021/04/15 05:36:51;;;;;;;1999.90;999.90;;;5.60;99.90;;;;;;5078077;28;20128;-90
2021/04/15 05:39:20;;;;;;;1999.90;999.90;;;5.60;99.90;;;;;;5083782;28;20048;-90
2021/04/15 05:42:01;;;;;;;1999.90;999.90;;;5.60;99.90;;;;;;5070230;28;20048;-90
2021/04/15 05:44:34;;;;;;;1999.90;999.90;;;5.60;99.90;;;;;;5076514;28;20044;-90
2021/04/15 05:47:04;;;;;;;1999.90;999.90;;;5.60;99.90;;;;;;5077198;28;20052;-90
2021/04/15 05:49:38;;;;;;;1999.90;999.90;;;5.60;99.90;;;;;;5077968;28;20128;-90
2021/04/15 05:52:08;;;;;;;1999.90;999.90;;;5.60;99.90;;;;;;5076749;28;20049;-90
2021/04/15 05:54:36;;;;;;;1999.90;999.90;;;5.60;99.90;;;;;;5078820;28;20371;-90
2021/04/15 05:57:09;;;;;;;1999.90;999.90;;;5.60;99.90;;;;;;5078889;28;20106;-90
2021/04/15 05:59:51;;;;;;;1999.90;999.90;;;5.60;99.90;;;;;;5079322;28;20131;-90
2021/04/15 06:02:41;;;;;;;1999.90;999.90;;;5.50;99.90;;;;;;5070892;28;20057;-90
2021/04/15 06:05:17;;;;;;;1999.90;999.90;;;5.50;99.90;;;;;;5073991;28;20048;-90
2021/04/15 06:07:47;;;;;;;1999.90;999.90;;;5.60;99.90;;;;;;5087176;28;20486;-90
2021/04/15 06:10:17;;;;;;;1999.90;999.90;;;5.60;99.90;;;;;;5077594;28;20053;-90
2021/04/15 06:12:54;;;;;;;1999.90;999.90;;;5.60;99.90;;;;;;5074451;28;20113;-90
2021/04/15 06:15:25;;;;;;;1999.90;999.90;;;5.60;99.90;;;;;;5077566;28;20052;-91
2021/04/15 06:18:04;;;;;;;1999.90;999.90;;;5.50;99.90;;;;;;5065074;28;20470;-90
2021/04/15 06:20:36;;;;;;;1999.90;999.90;;;5.50;99.90;;;;;;5077300;28;20053;-90
2021/04/15 06:23:08;;;;;;;1999.90;999.90;;;5.40;99.90;;;;;;5073594;28;20097;-90
2021/04/15 06:25:38;;;;;;;1999.90;999.90;;;5.40;99.90;;;;;;5091518;28;20098;-90
2021/04/15 06:28:08;;;;;;;1999.90;999.90;;;5.40;99.90;;;;;;5095529;28;20112;-90
2021/04/15 06:31:14;;;;;;;1999.90;999.90;;;5.40;99.90;;;;;;5089174;28;20060;-91
2021/04/15 06:33:43;;;;;;;1999.90;999.90;;;5.40;99.90;;;;;;5079384;28;20051;-91
2021/04/15 06:36:25;;;;;;;1999.90;999.90;;;5.40;99.90;;;;;;5095605;28;20098;-90
2021/04/15 06:39:01;;;;;;;1999.90;999.90;;;5.30;99.90;;;;;;5094272;28;20451;-91
2021/04/15 06:41:59;;;;;;;1999.90;999.90;;;5.30;99.90;;;;;;5098800;28;20058;-90
2021/04/15 06:45:08;;;;;;;1999.90;999.90;;;5.30;99.90;;;;;;5086951;28;20048;-91
2021/04/15 06:48:01;;;;;;;1999.90;999.90;;;5.30;99.90;;;;;;5097982;28;20047;-91
2021/04/15 06:50:31;;;;;;;1999.90;999.90;;;5.30;99.90;;;;;;5097656;28;20072;-91
2021/04/15 06:53:14;;;;;;;1999.90;999.90;;;5.30;99.90;;;;;;5097152;28;20052;-90
2021/04/15 06:55:57;;;;;;;1999.90;999.90;;;5.30;99.90;;;;;;5086488;28;20068;-90
2021/04/15 06:58:49;;;;;;;1999.90;999.90;;;5.30;99.90;;;;;;5096929;28;20087;-90
2021/04/15 07:01:39;;;;;;;1999.90;999.90;;;5.20;99.90;;;;;;5096611;28;20120;-90
2021/04/15 07:04:15;;;;;;;1999.90;999.90;;;5.20;99.90;;;;;;5094897;28;20040;-90
2021/04/15 07:06:50;;;;;;;1999.90;999.90;;;5.30;99.90;;;;;;5091769;28;20059;-90
2021/04/15 07:10:09;;;;;;;1999.90;999.90;;;5.40;99.90;;;;;;5098770;28;20047;-90
2021/04/15 07:13:22;;;;;;;1999.90;999.90;;;5.40;99.90;;;;;;5040509;28;20127;-90
2021/04/15 07:16:29;;;;;;;1999.90;999.90;;;5.40;99.90;;;;;;5096383;28;20494;-89
2021/04/15 07:19:28;;;;;;;1999.90;999.90;;;5.40;99.90;;;;;;5095289;28;20055;-95
2021/04/15 07:22:22;;;;;;;1999.90;999.90;;;5.40;99.90;;;;;;5095761;28;20154;-96
2021/04/15 07:25:09;;;;;;;1999.90;999.90;;;5.50;99.90;;;;;;5082241;28;20075;-95
2021/04/15 07:28:04;;;;;;;1999.90;999.90;;;5.50;99.90;;;;;;5095757;28;20078;-96
2021/04/15 07:31:14;;;;;;;1999.90;999.90;;;5.60;99.90;;;;;;5095595;28;20097;-95
2021/04/15 07:34:13;;;;;;;1999.90;999.90;;;5.50;99.90;;;;;;5095424;28;20047;-95
2021/04/15 07:37:07;;;;;;;1999.90;999.90;;;5.50;99.90;;;;;;5094813;28;20055;-95
2021/04/15 07:40:01;;;;;;;1999.90;999.90;;;5.50;99.90;;;;;;5095072;28;20559;-95
2021/04/15 07:42:47;;;;;;;1999.90;999.90;;;5.60;99.90;;;;;;5096191;28;20105;-96
2021/04/15 07:45:19;;;;;;;1999.90;999.90;;;5.70;99.90;;;;;;5095675;28;20048;-96
2021/04/15 07:48:20;;;;;;;1999.90;999.90;;;5.70;99.90;;;;;;5095530;28;20052;-95
2021/04/15 07:51:28;;;;;;;1999.90;999.90;;;5.70;99.90;;;;;;5095644;28;20056;-95
2021/04/15 07:54:18;;;;;;;1999.90;999.90;;;5.70;99.90;;;;;;5095434;28;20064;-95
2021/04/15 07:57:27;;;;;;;1999.90;999.90;;;5.90;99.90;;;;;;5095311;28;20081;-95
2021/04/15 08:00:13;;;;;;;1999.90;999.90;;;5.90;99.90;;;;;;5021587;28;20161;-96
2021/04/15 08:02:53;;;;;;;1999.90;999.90;;;6.00;99.90;;;;;;5096129;28;20056;-95
2021/04/15 08:05:44;;;;;;;1999.90;999.90;;;6.00;99.90;;;;;;5095640;28;20044;-95
2021/04/15 08:08:38;;;;;;;1999.90;999.90;;;6.00;99.90;;;;;;5092507;28;20094;-95
2021/04/15 08:11:38;;;;;;;1999.90;999.90;;;6.10;99.90;;;;;;5095440;28;20048;-96
2021/04/15 08:14:47;;;;;;;1999.90;999.90;;;6.30;99.90;;;;;;5095596;28;20044;-95
2021/04/15 08:17:31;;;;;;;1999.90;999.90;;;6.50;99.90;;;;;;5095830;28;20060;-95
2021/04/15 08:20:35;;;;;;;1999.90;999.90;;;6.60;99.90;;;;;;5097056;28;20132;-95
2021/04/15 08:23:14;;;;;;;1999.90;999.90;;;6.60;99.90;;;;;;5075940;28;20059;-95
2021/04/15 08:26:00;;;;;;;1999.90;999.90;;;6.60;99.90;;;;;;5094749;28;20063;-96
2021/04/15 08:28:51;;;;;;;1999.90;999.90;;;6.60;99.90;;;;;;5095358;28;20044;-95
2021/04/15 08:31:26;;;;;;;1999.90;999.90;;;6.60;99.90;;;;;;5096674;28;20059;-95
2021/04/15 08:34:10;;;;;;;1999.90;999.90;;;6.60;99.90;;;;;;5095229;28;20415;-96
2021/04/15 08:37:06;;;;;;;1999.90;999.90;;;6.60;99.90;;;;;;5096143;28;20088;-95
2021/04/15 08:39:36;;;;;;;1999.90;999.90;;;6.60;99.90;;;;;;5099707;28;20143;-96
2021/04/15 08:42:30;;;;;;;1999.90;999.90;;;6.70;99.90;;;;;;5099546;28;20108;-95
2021/04/15 08:45:31;;;;;;;1999.90;999.90;;;6.80;99.90;;;;;;5099170;28;20425;-95
2021/04/15 08:48:10;;;;;;;1999.90;999.90;;;6.70;99.90;;;;;;5099800;28;20056;-95
2021/04/15 08:50:52;;;;;;;1999.90;999.90;;;6.80;99.90;;;;;;5099056;28;20052;-96
2021/04/15 08:53:53;;;;;;;1999.90;999.90;;;6.80;99.90;;;;;;5098838;28;20052;-94
2021/04/15 08:56:26;;;;;;;1999.90;999.90;;;6.90;99.90;;;;;;5099235;28;20078;-95
2021/04/15 08:59:04;;;;;;;1999.90;999.90;;;6.90;99.90;;;;;;5098321;28;20047;-95
2021/04/15 09:01:44;;;;;;;1999.90;999.90;;;6.90;99.90;;;;;;5099196;28;20534;-95
2021/04/15 09:04:17;;;;;;;1999.90;999.90;;;6.90;99.90;;;;;;5099740;28;20494;-95
2021/04/15 09:06:52;;;;;;;1999.90;999.90;;;6.90;99.90;;;;;;5098896;28;20102;-95
2021/04/15 09:09:26;;;;;;;1999.90;999.90;;;6.90;99.90;;;;;;5100186;28;20059;-95
2021/04/15 09:12:04;;;;;;;1999.90;999.90;;;7.10;99.90;;;;;;5100229;28;20434;-95
2021/04/15 09:14:43;;;;;;;1999.90;999.90;;;7.20;99.90;;;;;;5102036;28;20040;-94
2021/04/15 09:17:15;;;;;;;1999.90;999.90;;;7.30;99.90;;;;;;5104345;28;20048;-95
2021/04/15 09:19:58;;;;;;;1999.90;999.90;;;7.40;99.90;;;;;;5103509;28;20048;-95
2021/04/15 09:22:52;;;;;;;1999.90;999.90;;;7.60;99.90;;;;;;5098486;28;20052;-95
2021/04/15 09:25:32;;;;;;;1999.90;999.90;;;7.80;99.90;;;;;;5080635;28;20056;-95
2021/04/15 09:28:09;;;;;;;1999.90;999.90;;;7.90;99.90;;;;;;5097664;28;20075;-96
2021/04/15 09:30:54;;;;;;;1999.90;999.90;;;8.10;99.90;;;;;;5097795;28;20058;-95
2021/04/15 09:33:53;;;;;;;1999.90;999.90;;;8.20;99.80;;;;;;5098697;28;20101;-94
2021/04/15 09:36:30;;;;;;;1999.90;999.90;;;8.20;98.70;;;;;;5097878;28;20068;-96
2021/04/15 09:39:43;;;;;;;1999.90;999.90;;;8.40;99.90;;;;;;5098596;28;20048;-96
2021/04/15 09:42:51;;;;;;;1999.90;999.90;;;8.40;99.90;;;;;;5092850;28;20052;-96
2021/04/15 09:45:31;;;;;;;1999.90;999.90;;;8.50;99.90;;;;;;5099097;28;20387;-96
2021/04/15 09:48:18;;;;;;;1999.90;999.90;;;8.60;99.20;;;;;;5099441;28;20135;-96
2021/04/15 09:50:53;;;;;;;1999.90;999.90;;;8.70;98.80;;;;;;5099146;28;20166;-96
2021/04/15 09:53:50;;;;;;;1999.90;999.90;;;8.80;98.10;;;;;;5098753;28;20052;-96
2021/04/15 09:56:44;;;;;;;1999.90;999.90;;;8.80;98.00;;;;;;5099869;28;20389;-92
2021/04/15 09:59:22;;;;;;;1999.90;999.90;;;8.90;97.20;;;;;;5103632;28;20367;-90
2021/04/15 10:01:54;;;;;;;1999.90;999.90;;;8.90;97.40;;;;;;5092968;28;20109;-90
2021/04/15 10:04:32;;;;;;;1999.90;999.90;;;9.00;98.00;;;;;;5099447;28;20130;-90
2021/04/15 10:07:05;;;;;;;1999.90;999.90;;;9.10;97.90;;;;;;5103413;28;20076;-90
2021/04/15 10:09:58;;;;;;;1999.90;999.90;;;9.20;96.40;;;;;;5092660;28;20093;-90
2021/04/15 10:12:42;;;;;;;1999.90;999.90;;;9.20;95.90;;;;;;5096340;28;20048;-90
2021/04/15 10:15:29;;;;;;;1999.90;999.90;;;9.20;95.80;;;;;;5102982;28;20158;-91
2021/04/15 10:18:05;;;;;;;1999.90;999.90;;;9.30;96.60;;;;;;5084585;28;20056;-91
2021/04/15 10:21:05;;;;;;;1999.90;999.90;;;9.50;96.70;;;;;;5096269;28;20056;-90
2021/04/15 10:23:55;;;;;;;1999.90;999.90;;;9.70;96.90;;;;;;5091641;28;20139;-91
2021/04/15 10:26:45;;;;;;;1999.90;999.90;;;9.90;96.40;;;;;;5095828;28;20451;-90
2021/04/15 10:29:45;;;;;;;1999.90;999.90;;;10.00;95.40;;;;;;5089662;28;20078;-91
2021/04/15 10:32:38;;;;;;;1999.90;999.90;;;10.00;93.80;;;;;;5089449;28;20044;-91
2021/04/15 10:35:28;;;;;;;1999.90;999.90;;;9.90;93.40;;;;;;5090161;28;20041;-90
2021/04/15 10:38:41;;;;;;;1999.90;999.90;;;9.90;94.60;;;;;;5095987;28;20078;-90
2021/04/15 10:41:44;;;;;;;1999.90;999.90;;;10.00;95.00;;;;;;5075987;28;20098;-91
2021/04/15 10:44:30;;;;;;;1999.90;999.90;;;10.10;93.90;;;;;;5076045;28;20049;-90
2021/04/15 10:47:15;;;;;;;1999.90;999.90;;;10.10;93.00;;;;;;5085563;28;20052;-90
2021/04/15 10:49:56;;;;;;;1999.90;999.90;;;10.00;93.00;;;;;;5095958;28;20482;-91
2021/04/15 10:52:42;;;;;;;1999.90;999.90;;;10.00;93.40;;;;;;5108721;28;20557;-91
2021/04/15 10:55:18;;;;;;;1999.90;999.90;;;10.00;93.60;;;;;;5095889;28;20466;-90
2021/04/15 10:57:45;;;;;;;1999.90;999.90;;;10.00;94.10;;;;;;5096169;28;20047;-91
2021/04/15 11:00:26;;;;;;;1999.90;999.90;;;10.00;93.20;;;;;;5101569;28;20135;-91
2021/04/15 11:02:56;;;;;;;1999.90;999.90;;;10.00;92.80;;;;;;5082448;28;20044;-91
2021/04/15 11:05:29;;;;;;;1999.90;999.90;;;10.00;92.40;;;;;;5095388;28;20048;-91
2021/04/15 11:08:06;;;;;;;1999.90;999.90;;;10.10;93.60;;;;;;5074950;28;20056;-90
2021/04/15 11:10:35;;;;;;;1999.90;999.90;;;10.20;92.30;;;;;;5089458;28;20497;-91
2021/04/15 11:13:11;;;;;;;1999.90;999.90;;;10.40;93.50;;;;;;5095303;28;20123;-91
2021/04/15 11:15:46;;;;;;;1999.90;999.90;;;10.60;92.30;;;;;;5093184;28;20040;-91
2021/04/15 11:18:22;;;;;;;1999.90;999.90;;;10.70;91.30;;;;;;5087648;28;20117;-91
2021/04/15 11:20:51;;;;;;;1999.90;999.90;;;10.70;89.60;;;;;;5090264;28;20052;-90
2021/04/15 11:23:32;;;;;;;1999.90;999.90;;;10.70;86.00;;;;;;5091618;28;20059;-91
2021/04/15 11:26:19;;;;;;;1999.90;999.90;;;10.60;86.30;;;;;;5096644;28;20575;-91
2021/04/15 11:28:47;;;;;;;1999.90;999.90;;;10.60;84.70;;;;;;5095103;28;20094;-90
2021/04/15 11:31:28;;;;;;;1999.90;999.90;;;10.60;85.80;;;;;;5097032;28;20060;-90
2021/04/15 11:34:06;;;;;;;1999.90;999.90;;;10.60;84.20;;;;;;5094647;28;20509;-91
2021/04/15 11:51:16;;;;;;;1999.90;999.90;;;10.90;89.20;;;;;;5148834;27;20383;-91
2021/04/15 11:53:53;;;;;;;1999.90;999.90;;;11.80;92.50;;;;;;5128837;27;20054;-93
2021/04/15 11:56:44;;;;;;;1999.90;999.90;;;11.80;90.80;;;;;;5130217;28;20055;-92
2021/04/15 11:59:25;;;;;;;1999.90;999.90;;;11.90;90.60;;;;;;5133119;28;20044;-92
2021/04/15 12:02:12;;;;;;;1999.90;999.90;;;11.80;91.00;;;;;;5134177;28;20055;-91
2021/04/15 12:04:45;;;;;;;1999.90;999.90;;;11.60;90.00;;;;;;5139507;27;20043;-91
2021/04/15 12:07:23;;;;;;;1999.90;999.90;;;11.60;90.20;;;;;;5122916;28;20056;-91
2021/04/15 12:09:51;;;;;;;1999.90;999.90;;;11.50;89.00;;;;;;5112207;28;20060;-92
2021/04/15 12:12:31;;;;;;;1999.90;999.90;;;11.50;91.50;;;;;;5111947;28;20059;-92
2021/04/15 12:15:03;;;;;;;1999.90;999.90;;;11.50;90.90;;;;;;5120085;28;20039;-93
2021/04/15 12:17:45;;;;;;;1999.90;999.90;;;11.50;91.20;;;;;;5131738;27;20054;-93
2021/04/15 12:20:27;;;;;;;1999.90;999.90;;;11.40;90.70;;;;;;5131554;27;20054;-93
2021/04/15 12:23:10;;;;;;;1999.90;999.90;;;11.30;90.60;;;;;;5131535;28;20043;-93
2021/04/15 12:25:47;;;;;;;1999.90;999.90;;;11.30;91.00;;;;;;5120610;27;20058;-93
2021/04/15 12:28:38;;;;;;;1999.90;999.90;;;11.10;91.30;;;;;;5130241;28;20054;-92
2021/04/15 12:31:18;;;;;;;1999.90;999.90;;;11.10;91.70;;;;;;5131552;27;20138;-93
2021/04/15 12:34:01;;;;;;;1999.90;999.90;;;11.10;92.20;;;;;;5119324;28;20058;-93
2021/04/15 12:36:40;;;;;;;1999.90;999.90;;;10.90;92.20;;;;;;5118135;28;20135;-93
2021/04/15 12:39:20;;;;;;;1999.90;999.90;;;11.00;92.40;;;;;;5130739;28;20482;-93
2021/04/15 12:41:52;;;;;;;1999.90;999.90;;;11.00;91.70;;;;;;5130835;28;20490;-92
2021/04/15 12:44:26;;;;;;;1999.90;999.90;;;10.80;91.00;;;;;;5126920;27;20051;-94
2021/04/15 12:46:57;;;;;;;1999.90;999.90;;;10.70;91.20;;;;;;5120376;28;20058;-92
2021/04/15 12:49:35;;;;;;;1999.90;999.90;;;10.70;91.60;;;;;;5129657;28;20082;-92
2021/04/15 12:52:13;;;;;;;1999.90;999.90;;;10.60;91.70;;;;;;5117278;28;20048;-93
2021/04/15 12:58:26;;;;;;;1999.90;999.90;;;11.20;92.40;;;;;;5105323;28;20409;-92
2021/04/15 13:00:56;;;;;;;1999.90;999.90;;;11.30;91.30;;;;;;5116405;28;20054;-92
2021/04/15 13:03:30;;;;;;;1999.90;999.90;;;11.30;90.80;;;;;;5105211;28;20063;-92
2021/04/15 13:06:12;;;;;;;1999.90;999.90;;;11.30;90.80;;;;;;5119753;28;20066;-92
2021/04/15 13:08:45;;;;;;;1999.90;999.90;;;11.30;90.00;;;;;;5128003;28;20043;-92
2021/04/15 13:11:44;;;;;;;1999.90;999.90;;;11.20;90.40;;;;;;5111515;28;20071;-92
2021/04/15 13:14:43;;;;;;;1999.90;999.90;;;11.20;90.10;;;;;;5069932;28;20060;-92
2021/04/15 13:17:14;;;;;;;1999.90;999.90;;;11.10;90.40;;;;;;5113723;28;20120;-92
2021/04/15 13:19:56;;;;;;;1999.90;999.90;;;11.10;90.50;;;;;;5118124;28;20039;-92